createdAt,value
2019-01-26T00:00:08.198Z,-0.58
2019-01-26T00:01:42.214Z,-0.59
2019-01-26T00:03:16.036Z,-0.61
2019-01-26T00:04:49.706Z,-0.60
2019-01-26T00:06:23.645Z,-0.60
2019-01-26T00:07:56.621Z,-0.62
2019-01-26T00:09:32.528Z,-0.61
2019-01-26T00:11:06.540Z,-0.63
2019-01-26T00:12:39.435Z,-0.63
2019-01-26T00:14:12.292Z,-0.64
2019-01-26T00:15:46.408Z,-0.65
2019-01-26T00:17:21.441Z,-0.64
2019-01-26T00:18:55.416Z,-0.65
2019-01-26T00:20:30.587Z,-0.66
2019-01-26T00:22:03.471Z,-0.65
2019-01-26T00:23:37.164Z,-0.66
2019-01-26T00:25:11.234Z,-0.66
2019-01-26T00:26:44.123Z,-0.68
2019-01-26T00:28:18.434Z,-0.68
2019-01-26T00:29:52.332Z,-0.69
2019-01-26T00:31:26.350Z,-0.69
2019-01-26T00:33:00.366Z,-0.69
2019-01-26T00:34:34.286Z,-0.70
2019-01-26T00:36:08.064Z,-0.71
2019-01-26T00:37:42.096Z,-0.71
2019-01-26T00:39:15.328Z,-0.72
2019-01-26T00:40:49.474Z,-0.73
2019-01-26T00:42:23.660Z,-0.74
2019-01-26T00:43:57.728Z,-0.74
2019-01-26T00:45:32.095Z,-0.74
2019-01-26T00:47:06.452Z,-0.75
2019-01-26T00:48:40.723Z,-0.76
2019-01-26T00:50:13.754Z,-0.77
2019-01-26T00:51:47.788Z,-0.78
2019-01-26T00:53:22.223Z,-0.78
2019-01-26T00:54:56.199Z,-0.80
2019-01-26T00:56:30.009Z,-0.79
2019-01-26T00:58:03.111Z,-0.80
2019-01-26T00:59:36.995Z,-0.80
2019-01-26T01:01:10.117Z,-0.85
2019-01-26T01:02:44.497Z,-0.87
2019-01-26T01:04:18.491Z,-0.87
2019-01-26T01:05:52.518Z,-0.89
2019-01-26T01:07:26.322Z,-0.88
2019-01-26T01:08:59.296Z,-0.92
2019-01-26T01:10:34.055Z,-0.93
2019-01-26T01:12:22.894Z,-0.93
2019-01-26T01:13:56.646Z,-0.94
2019-01-26T01:15:31.519Z,-0.93
2019-01-26T01:17:06.033Z,-0.94
2019-01-26T01:18:40.019Z,-0.93
2019-01-26T01:20:13.579Z,-0.94
2019-01-26T01:21:46.472Z,-0.94
2019-01-26T01:23:19.350Z,-0.95
2019-01-26T01:24:52.275Z,-0.96
2019-01-26T01:26:26.233Z,-0.96
2019-01-26T01:27:59.091Z,-0.96
2019-01-26T01:29:31.973Z,-0.97
2019-01-26T01:31:05.031Z,-0.97
2019-01-26T01:32:41.830Z,-0.98
2019-01-26T01:34:14.680Z,-0.99
2019-01-26T01:35:47.990Z,-0.98
2019-01-26T01:37:22.147Z,-0.98
2019-01-26T01:38:57.183Z,-1.00
2019-01-26T01:40:31.149Z,-1.00
2019-01-26T01:42:05.153Z,-0.99
2019-01-26T01:43:39.591Z,-1.00
2019-01-26T01:45:13.338Z,-1.00
2019-01-26T01:46:47.457Z,-1.02
2019-01-26T01:48:20.528Z,-1.01
2019-01-26T01:49:54.592Z,-1.01
2019-01-26T01:51:28.481Z,-1.02
2019-01-26T01:53:01.436Z,-1.01
2019-01-26T01:54:35.751Z,-1.02
2019-01-26T01:56:08.960Z,-1.02
2019-01-26T01:57:41.918Z,-1.02
2019-01-26T01:59:15.410Z,-1.04
2019-01-26T02:00:48.281Z,-1.03
2019-01-26T02:02:21.380Z,-1.03
2019-01-26T02:03:54.592Z,-1.04
2019-01-26T02:05:28.647Z,-1.04
2019-01-26T02:07:02.874Z,-1.04
2019-01-26T02:08:37.053Z,-1.05
2019-01-26T02:10:10.151Z,-1.05
2019-01-26T02:11:44.057Z,-1.04
2019-01-26T02:13:17.222Z,-1.06
2019-01-26T02:14:51.531Z,-1.07
2019-01-26T02:16:24.367Z,-1.07
2019-01-26T02:17:57.278Z,-1.08
2019-01-26T02:19:30.154Z,-1.08
2019-01-26T02:21:02.998Z,-1.08
2019-01-26T02:22:36.911Z,-1.08
2019-01-26T02:24:09.831Z,-1.09
2019-01-26T02:25:42.867Z,-1.09
2019-01-26T02:27:15.874Z,-1.08
2019-01-26T02:28:49.842Z,-1.10
2019-01-26T02:30:26.578Z,-1.09
2019-01-26T02:31:59.764Z,-1.09
2019-01-26T02:33:33.833Z,-1.10
2019-01-26T02:35:06.764Z,-1.09
2019-01-26T02:36:39.514Z,-1.09
2019-01-26T02:38:13.748Z,-1.09
2019-01-26T02:39:49.185Z,-1.09
2019-01-26T02:41:22.400Z,-1.09
2019-01-26T02:42:55.342Z,-1.09
2019-01-26T02:44:28.274Z,-1.09
2019-01-26T02:46:01.807Z,-1.10
2019-01-26T02:47:36.008Z,-1.10
2019-01-26T02:49:08.797Z,-1.09
2019-01-26T02:50:43.059Z,-1.11
2019-01-26T02:52:15.992Z,-1.11
2019-01-26T02:53:49.316Z,-1.11
2019-01-26T02:55:23.224Z,-1.13
2019-01-26T02:56:56.296Z,-1.12
2019-01-26T02:58:30.367Z,-1.14
2019-01-26T03:00:04.621Z,-1.13
2019-01-26T03:01:38.606Z,-1.14
2019-01-26T03:03:12.932Z,-1.14
2019-01-26T03:04:47.515Z,-1.14
2019-01-26T03:06:21.587Z,-1.16
2019-01-26T03:07:55.430Z,-1.15
2019-01-26T03:09:30.687Z,-1.16
2019-01-26T03:11:04.677Z,-1.17
2019-01-26T03:12:37.648Z,-1.17
2019-01-26T03:14:11.101Z,-1.17
2019-01-26T03:15:46.407Z,-1.18
2019-01-26T03:17:21.231Z,-1.17
2019-01-26T03:18:56.009Z,-1.19
2019-01-26T03:20:31.869Z,-1.19
2019-01-26T03:22:06.183Z,-1.20
2019-01-26T03:23:40.522Z,-1.21
2019-01-26T03:25:13.340Z,-1.21
2019-01-26T03:26:46.988Z,-1.24
2019-01-26T03:28:21.105Z,-1.24
2019-01-26T03:29:54.849Z,-1.26
2019-01-26T03:31:28.964Z,-1.25
2019-01-26T03:33:01.977Z,-1.26
2019-01-26T03:34:35.791Z,-1.26
2019-01-26T03:36:08.647Z,-1.27
2019-01-26T03:37:41.732Z,-1.27
2019-01-26T03:39:15.640Z,-1.28
2019-01-26T03:40:49.554Z,-1.29
2019-01-26T03:42:23.220Z,-1.28
2019-01-26T03:43:56.051Z,-1.30
2019-01-26T03:45:29.902Z,-1.31
2019-01-26T03:47:02.748Z,-1.34
2019-01-26T03:48:35.740Z,-1.33
2019-01-26T03:50:08.883Z,-1.37
2019-01-26T03:51:42.775Z,-1.35
2019-01-26T03:53:16.470Z,-1.35
2019-01-26T03:54:50.382Z,-1.35
2019-01-26T03:56:23.334Z,-1.36
2019-01-26T03:57:57.300Z,-1.37
2019-01-26T03:59:30.126Z,-1.37
2019-01-26T04:01:03.120Z,-1.37
2019-01-26T04:02:36.187Z,-1.38
2019-01-26T04:04:09.128Z,-1.37
2019-01-26T04:05:42.961Z,-1.39
2019-01-26T04:07:16.018Z,-1.38
2019-01-26T04:08:49.866Z,-1.39
2019-01-26T04:10:24.860Z,-1.38
2019-01-26T04:11:57.803Z,-1.40
2019-01-26T04:13:31.337Z,-1.39
2019-01-26T04:15:04.755Z,-1.39
2019-01-26T04:16:37.603Z,-1.40
2019-01-26T04:18:11.917Z,-1.40
2019-01-26T04:19:45.273Z,-1.40
2019-01-26T04:21:18.295Z,-1.42
2019-01-26T04:22:51.663Z,-1.40
2019-01-26T04:24:24.555Z,-1.42
2019-01-26T04:25:58.296Z,-1.40
2019-01-26T04:27:31.270Z,-1.41
2019-01-26T04:29:05.634Z,-1.41
2019-01-26T04:30:40.109Z,-1.41
2019-01-26T04:32:13.454Z,-1.42
2019-01-26T04:33:47.198Z,-1.42
2019-01-26T04:35:20.131Z,-1.42
2019-01-26T04:36:54.248Z,-1.43
2019-01-26T04:38:28.339Z,-1.41
2019-01-26T04:40:01.254Z,-1.43
2019-01-26T04:41:35.366Z,-1.43
2019-01-26T04:43:09.223Z,-1.42
2019-01-26T04:44:42.123Z,-1.42
2019-01-26T04:46:14.967Z,-1.44
2019-01-26T04:47:47.902Z,-1.43
2019-01-26T04:49:20.937Z,-1.43
2019-01-26T04:50:54.881Z,-1.43
2019-01-26T04:52:27.821Z,-1.43
2019-01-26T04:54:01.663Z,-1.44
2019-01-26T04:55:35.437Z,-1.44
2019-01-26T04:57:08.314Z,-1.44
2019-01-26T04:58:42.168Z,-1.45
2019-01-26T05:00:15.066Z,-1.45
2019-01-26T05:01:47.881Z,-1.45
2019-01-26T05:03:20.883Z,-1.45
2019-01-26T05:04:53.683Z,-1.45
2019-01-26T05:06:26.716Z,-1.45
2019-01-26T05:08:00.622Z,-1.46
2019-01-26T05:09:34.650Z,-1.45
2019-01-26T05:11:08.649Z,-1.47
2019-01-26T05:12:42.381Z,-1.50
2019-01-26T05:14:15.395Z,-1.48
2019-01-26T05:15:48.311Z,-1.48
2019-01-26T05:17:22.197Z,-1.49
2019-01-26T05:18:56.130Z,-1.49
2019-01-26T05:20:32.250Z,-1.50
2019-01-26T05:22:06.581Z,-1.49
2019-01-26T05:23:39.911Z,-1.49
2019-01-26T05:25:14.257Z,-1.49
2019-01-26T05:26:48.447Z,-1.47
2019-01-26T05:28:22.883Z,-1.48
2019-01-26T05:29:57.227Z,-1.48
2019-01-26T05:31:31.203Z,-1.48
2019-01-26T05:33:04.607Z,-1.48
2019-01-26T05:34:38.920Z,-1.48
2019-01-26T05:36:12.816Z,-1.48
2019-01-26T05:37:46.781Z,-1.47
2019-01-26T05:39:21.685Z,-1.52
2019-01-26T05:40:55.878Z,-1.51
2019-01-26T05:42:29.326Z,-1.49
2019-01-26T05:44:02.215Z,-1.53
2019-01-26T05:45:37.439Z,-1.55
2019-01-26T05:47:10.442Z,-1.54
2019-01-26T05:48:43.594Z,-1.60
2019-01-26T05:50:16.618Z,-1.67
2019-01-26T05:51:50.595Z,-1.63
2019-01-26T05:53:23.455Z,-1.62
2019-01-26T05:54:56.456Z,-1.61
2019-01-26T05:56:29.440Z,-1.60
2019-01-26T05:58:03.346Z,-1.61
2019-01-26T05:59:37.157Z,-1.60
2019-01-26T06:01:11.369Z,-1.59
2019-01-26T06:02:45.054Z,-1.59
2019-01-26T06:04:18.046Z,-1.57
2019-01-26T06:05:52.055Z,-1.59
2019-01-26T06:07:25.877Z,-1.58
2019-01-26T06:08:59.691Z,-1.57
2019-01-26T06:10:33.532Z,-1.56
2019-01-26T06:12:07.466Z,-1.57
2019-01-26T06:13:40.715Z,-1.57
2019-01-26T06:15:13.703Z,-1.60
2019-01-26T06:16:46.571Z,-1.67
2019-01-26T06:18:19.391Z,-1.65
2019-01-26T06:19:52.226Z,-1.70
2019-01-26T06:21:26.219Z,-1.68
2019-01-26T06:22:59.319Z,-1.69
2019-01-26T06:24:33.182Z,-1.67
2019-01-26T06:26:07.219Z,-1.70
2019-01-26T06:27:41.474Z,-1.74
2019-01-26T06:29:14.731Z,-1.72
2019-01-26T06:30:50.271Z,-1.71
2019-01-26T06:32:24.562Z,-1.70
2019-01-26T06:33:59.182Z,-1.68
2019-01-26T06:35:32.071Z,-1.68
2019-01-26T06:37:06.409Z,-1.67
2019-01-26T06:38:43.332Z,-1.65
2019-01-26T06:40:20.774Z,-1.65
2019-01-26T06:41:54.143Z,-1.62
2019-01-26T06:43:29.189Z,-1.62
2019-01-26T06:45:03.243Z,-1.61
2019-01-26T06:46:36.154Z,-1.60
2019-01-26T06:48:10.080Z,-1.62
2019-01-26T06:49:44.036Z,-1.61
2019-01-26T06:51:17.982Z,-1.58
2019-01-26T06:52:51.372Z,-1.59
2019-01-26T06:54:25.534Z,-1.58
2019-01-26T06:55:58.667Z,-1.58
2019-01-26T06:57:31.844Z,-1.57
2019-01-26T06:59:05.433Z,-1.56
2019-01-26T07:00:40.392Z,-1.55
2019-01-26T07:02:14.514Z,-1.55
2019-01-26T07:03:49.214Z,-1.54
2019-01-26T07:05:36.019Z,-1.53
2019-01-26T07:07:17.327Z,-1.53
2019-01-26T07:08:50.090Z,-1.53
2019-01-26T07:10:23.209Z,-1.53
2019-01-26T07:11:56.049Z,-1.53
2019-01-26T07:13:29.743Z,-1.53
2019-01-26T07:15:03.627Z,-1.53
2019-01-26T07:16:36.235Z,-1.52
2019-01-26T07:18:09.813Z,-1.52
2019-01-26T07:19:43.300Z,-1.52
2019-01-26T07:21:17.204Z,-1.52
2019-01-26T07:22:51.054Z,-1.52
2019-01-26T07:24:25.085Z,-1.51
2019-01-26T07:25:59.218Z,-1.51
2019-01-26T07:27:32.071Z,-1.52
2019-01-26T07:29:05.864Z,-1.52
2019-01-26T07:30:39.779Z,-1.53
2019-01-26T07:32:12.552Z,-1.53
2019-01-26T07:33:45.335Z,-1.55
2019-01-26T07:35:19.185Z,-1.57
2019-01-26T07:36:53.521Z,-1.57
2019-01-26T07:38:27.360Z,-1.56
2019-01-26T07:40:01.326Z,-1.50
2019-01-26T07:41:35.384Z,-1.26
2019-01-26T07:43:10.306Z,-1.04
2019-01-26T07:44:44.808Z,-0.92
2019-01-26T07:46:18.693Z,-0.85
2019-01-26T07:47:52.875Z,-0.83
2019-01-26T07:49:26.066Z,-0.79
2019-01-26T07:51:00.106Z,-0.82
2019-01-26T07:52:34.448Z,-0.86
2019-01-26T07:54:08.898Z,-0.88
2019-01-26T07:55:41.796Z,-0.98
2019-01-26T07:57:14.898Z,-1.05
2019-01-26T07:58:49.149Z,-1.10
2019-01-26T08:00:24.297Z,-1.12
2019-01-26T08:01:58.135Z,-1.15
2019-01-26T08:03:31.053Z,-1.19
2019-01-26T08:05:05.084Z,-1.21
2019-01-26T08:06:39.446Z,-1.24
2019-01-26T08:08:13.804Z,-1.23
2019-01-26T08:09:48.052Z,-1.25
2019-01-26T08:11:22.473Z,-1.24
2019-01-26T08:12:55.774Z,-1.25
2019-01-26T08:14:29.928Z,-1.33
2019-01-26T08:16:02.856Z,-1.37
2019-01-26T08:17:36.922Z,-1.41
2019-01-26T08:19:12.028Z,-1.43
2019-01-26T08:20:44.972Z,-1.54
2019-01-26T08:22:19.332Z,-1.52
2019-01-26T08:23:53.172Z,-1.47
2019-01-26T08:25:27.363Z,-1.35
2019-01-26T08:27:01.920Z,-1.30
2019-01-26T08:28:37.551Z,-1.28
2019-01-26T08:30:11.521Z,-1.25
2019-01-26T08:31:45.731Z,-1.24
2019-01-26T08:33:20.283Z,-1.22
2019-01-26T08:34:54.515Z,-1.25
2019-01-26T08:36:29.460Z,-1.21
2019-01-26T08:38:02.266Z,-1.21
2019-01-26T08:39:36.660Z,-1.21
2019-01-26T08:41:11.983Z,-1.21
2019-01-26T08:42:46.033Z,-1.21
2019-01-26T08:44:19.101Z,-1.21
2019-01-26T08:45:52.529Z,-1.19
2019-01-26T08:47:25.804Z,-1.21
2019-01-26T08:48:59.839Z,-1.21
2019-01-26T08:50:35.728Z,-1.20
2019-01-26T08:52:09.847Z,-1.20
2019-01-26T08:53:44.005Z,-1.20
2019-01-26T08:55:18.638Z,-1.19
2019-01-26T08:56:52.301Z,-1.22
2019-01-26T08:58:25.483Z,-0.76
2019-01-26T08:59:58.678Z,-0.35
2019-01-26T09:01:32.547Z,-0.11
2019-01-26T09:05:14.576Z,0.06
2019-01-26T09:06:52.973Z,0.16
2019-01-26T09:08:27.256Z,0.13
2019-01-26T09:10:00.690Z,0.12
2019-01-26T09:11:34.800Z,0.06
2019-01-26T09:13:08.988Z,0.00
2019-01-26T09:14:43.100Z,-0.16
2019-01-26T09:16:17.750Z,-0.21
2019-01-26T09:17:51.948Z,-0.35
2019-01-26T09:19:25.028Z,-0.25
2019-01-26T09:20:59.263Z,-0.33
2019-01-26T09:22:32.359Z,-0.39
2019-01-26T09:24:06.575Z,-0.46
2019-01-26T09:25:39.383Z,-0.45
2019-01-26T09:27:13.300Z,-0.46
2019-01-26T09:28:47.496Z,-0.57
2019-01-26T09:30:22.486Z,-0.64
2019-01-26T09:31:57.658Z,-0.66
2019-01-26T09:33:31.343Z,-0.71
2019-01-26T09:35:05.143Z,-0.81
2019-01-26T09:36:38.840Z,-0.86
2019-01-26T09:38:12.593Z,-0.90
2019-01-26T09:39:46.354Z,-0.94
2019-01-26T09:41:21.175Z,-0.94
2019-01-26T09:42:55.220Z,-0.98
2019-01-26T09:44:29.155Z,-1.05
2019-01-26T09:46:03.087Z,-1.01
2019-01-26T09:47:36.082Z,-1.01
2019-01-26T09:49:09.908Z,-1.03
2019-01-26T09:50:42.722Z,-1.11
2019-01-26T09:52:15.704Z,-1.30
2019-01-26T09:53:49.587Z,-1.55
2019-01-26T09:55:24.558Z,-1.49
2019-01-26T09:56:58.282Z,-1.49
2019-01-26T09:58:32.257Z,-1.52
2019-01-26T10:00:04.975Z,-1.62
2019-01-26T10:01:39.176Z,-1.54
2019-01-26T10:03:13.352Z,-1.52
2019-01-26T10:04:47.836Z,-1.50
2019-01-26T10:06:22.151Z,-1.55
2019-01-26T10:07:56.664Z,-1.52
2019-01-26T10:09:33.644Z,-1.45
2019-01-26T10:11:07.027Z,-1.43
2019-01-26T10:12:41.307Z,-1.40
2019-01-26T10:14:15.681Z,-1.40
2019-01-26T10:15:49.685Z,-1.37
2019-01-26T10:17:23.992Z,-1.44
2019-01-26T10:18:57.439Z,-1.47
2019-01-26T10:20:34.753Z,-1.42
2019-01-26T10:22:08.842Z,-1.37
2019-01-26T10:23:43.188Z,-1.34
2019-01-26T10:25:16.565Z,-1.35
2019-01-26T10:26:51.003Z,-1.35
2019-01-26T10:28:24.819Z,-1.32
2019-01-26T10:29:58.783Z,-1.34
2019-01-26T10:31:32.779Z,-1.36
2019-01-26T10:33:05.577Z,-1.36
2019-01-26T10:34:39.772Z,-1.33
2019-01-26T10:36:31.875Z,-1.30
2019-01-26T10:38:06.082Z,-1.38
2019-01-26T10:39:39.884Z,-1.35
2019-01-26T10:41:21.723Z,-1.45
2019-01-26T10:42:55.620Z,-1.51
2019-01-26T10:44:37.517Z,-1.57
2019-01-26T10:46:11.611Z,-1.47
2019-01-26T10:47:45.298Z,-1.45
2019-01-26T10:49:18.173Z,-1.46
2019-01-26T10:50:53.119Z,-1.38
2019-01-26T10:52:27.906Z,-1.38
2019-01-26T10:54:00.535Z,-1.32
2019-01-26T10:55:34.342Z,-1.29
2019-01-26T10:57:07.146Z,-1.26
2019-01-26T10:58:41.324Z,-1.28
2019-01-26T11:00:15.064Z,-1.22
2019-01-26T11:01:48.095Z,-1.27
2019-01-26T11:03:22.945Z,-1.22
2019-01-26T11:04:55.654Z,-1.23
2019-01-26T11:06:29.402Z,-1.21
2019-01-26T11:08:03.556Z,-1.18
2019-01-26T11:09:36.725Z,-1.16
2019-01-26T11:11:10.773Z,-1.12
2019-01-26T11:12:44.865Z,-1.10
2019-01-26T11:14:18.871Z,-1.10
2019-01-26T11:15:52.851Z,-1.12
2019-01-26T11:17:26.864Z,-1.11
2019-01-26T11:19:07.692Z,-1.17
2019-01-26T11:20:35.330Z,-1.15
2019-01-26T11:22:09.624Z,-1.19
2019-01-26T11:23:43.273Z,-1.15
2019-01-26T11:25:18.018Z,-1.12
2019-01-26T11:26:51.788Z,-1.14
2019-01-26T11:28:26.215Z,-1.21
2019-01-26T11:30:00.531Z,-1.18
2019-01-26T11:31:35.073Z,-1.16
2019-01-26T11:33:09.587Z,-1.14
2019-01-26T11:34:43.608Z,-1.22
2019-01-26T11:36:18.081Z,-1.25
2019-01-26T11:37:53.641Z,-1.35
2019-01-26T11:39:31.458Z,-1.46
2019-01-26T11:41:05.566Z,-1.42
2019-01-26T11:42:38.624Z,-1.35
2019-01-26T11:44:11.937Z,-1.34
2019-01-26T11:45:56.285Z,-1.35
2019-01-26T11:47:29.942Z,-1.44
2019-01-26T11:49:04.669Z,-1.33
2019-01-26T11:50:42.659Z,-1.32
2019-01-26T11:52:17.944Z,-1.27
2019-01-26T11:53:50.678Z,-1.31
2019-01-26T11:55:47.038Z,-1.27
2019-01-26T11:57:27.878Z,-1.30
2019-01-26T11:59:01.636Z,-1.34
2019-01-26T12:00:59.555Z,-1.38
2019-01-26T12:02:34.165Z,-1.39
2019-01-26T12:05:10.020Z,-1.33
2019-01-26T12:06:48.251Z,-1.31
2019-01-26T12:08:21.415Z,-1.30
2019-01-26T12:09:55.640Z,-1.30
2019-01-26T12:11:30.258Z,-1.33
2019-01-26T12:13:04.083Z,-1.34
2019-01-26T12:14:38.965Z,-1.37
2019-01-26T12:16:12.663Z,-1.36
2019-01-26T12:17:46.557Z,-1.47
2019-01-26T12:19:22.440Z,-1.40
2019-01-26T12:20:52.644Z,-1.48
2019-01-26T12:22:25.512Z,-1.42
2019-01-26T12:23:59.637Z,-1.46
2019-01-26T12:25:33.746Z,-1.42
2019-01-26T12:27:07.677Z,-1.42
2019-01-26T12:28:40.381Z,-1.43
2019-01-26T12:30:14.612Z,-1.39
2019-01-26T12:31:48.412Z,-1.31
2019-01-26T12:33:22.682Z,-1.30
2019-01-26T12:34:56.753Z,-1.30
2019-01-26T12:36:30.120Z,-1.29
2019-01-26T12:38:04.218Z,-1.25
2019-01-26T12:39:38.333Z,-1.31
2019-01-26T12:41:12.335Z,-1.32
2019-01-26T12:42:47.607Z,-1.48
2019-01-26T12:44:20.806Z,-1.51
2019-01-26T12:45:54.883Z,-1.52
2019-01-26T12:47:28.183Z,-1.52
2019-01-26T12:49:01.431Z,-1.63
2019-01-26T12:50:35.233Z,-1.59
2019-01-26T12:52:09.239Z,-1.52
2019-01-26T12:53:42.347Z,-1.44
2019-01-26T12:55:15.235Z,-1.39
2019-01-26T12:56:49.222Z,-1.38
2019-01-26T12:58:23.572Z,-1.31
2019-01-26T12:59:57.492Z,-1.26
2019-01-26T13:01:30.514Z,-1.22
2019-01-26T13:03:03.801Z,-1.24
2019-01-26T13:04:37.611Z,-1.23
2019-01-26T13:06:11.370Z,-1.33
2019-01-26T13:07:45.213Z,-1.46
2019-01-26T13:09:19.176Z,-1.67
2019-01-26T13:10:57.186Z,-1.84
2019-01-26T13:12:31.380Z,-1.80
2019-01-26T13:14:05.520Z,-2.00
2019-01-26T13:15:39.420Z,-1.90
2019-01-26T13:17:14.052Z,-1.42
2019-01-26T13:18:48.676Z,-1.08
2019-01-26T13:20:24.221Z,-0.54
2019-01-26T13:21:59.046Z,-0.10
2019-01-26T13:23:32.751Z,0.24
2019-01-26T13:25:06.954Z,0.50
2019-01-26T13:26:40.985Z,0.60
2019-01-26T13:28:15.259Z,0.63
2019-01-26T13:29:49.278Z,0.53
2019-01-26T13:31:23.778Z,0.56
2019-01-26T13:32:57.612Z,0.55
2019-01-26T13:34:30.665Z,0.50
2019-01-26T13:36:04.667Z,0.47
2019-01-26T13:37:37.883Z,0.41
2019-01-26T13:39:12.761Z,0.27
2019-01-26T13:40:47.091Z,0.26
2019-01-26T13:42:19.894Z,0.21
2019-01-26T13:43:54.015Z,0.15
2019-01-26T13:45:31.332Z,0.06
2019-01-26T13:47:05.573Z,0.03
2019-01-26T13:48:40.626Z,0.01
2019-01-26T13:50:14.848Z,-0.05
2019-01-26T13:51:49.492Z,-0.08
2019-01-26T13:53:22.513Z,-0.12
2019-01-26T13:54:56.484Z,-0.15
2019-01-26T13:56:30.500Z,-0.15
2019-01-26T13:58:04.571Z,-0.20
2019-01-26T13:59:38.662Z,-0.20
2019-01-26T14:01:12.745Z,-0.23
2019-01-26T14:02:46.934Z,-0.26
2019-01-26T14:04:21.424Z,-0.26
2019-01-26T14:05:55.096Z,-0.37
2019-01-26T14:07:29.216Z,-0.46
2019-01-26T14:09:03.283Z,-0.50
2019-01-26T14:10:37.230Z,-0.63
2019-01-26T14:12:11.382Z,-0.69
2019-01-26T14:13:45.574Z,-0.64
2019-01-26T14:15:19.957Z,-0.77
2019-01-26T14:16:53.030Z,-0.83
2019-01-26T14:18:27.223Z,-0.88
2019-01-26T14:20:01.926Z,-0.87
2019-01-26T14:21:36.334Z,-0.85
2019-01-26T14:23:10.597Z,-0.95
2019-01-26T14:24:44.476Z,-0.98
2019-01-26T14:28:14.292Z,-1.05
2019-01-26T14:29:48.023Z,-1.04
2019-01-26T14:31:24.964Z,-1.03
2019-01-26T14:33:00.583Z,-1.06
2019-01-26T14:34:33.487Z,-1.03
2019-01-26T14:36:07.391Z,-1.09
2019-01-26T14:37:42.421Z,-1.11
2019-01-26T14:39:17.117Z,-1.21
2019-01-26T14:40:51.086Z,-1.25
2019-01-26T14:42:25.100Z,-1.37
2019-01-26T14:43:59.127Z,-1.46
2019-01-26T14:45:35.000Z,-1.43
2019-01-26T14:47:08.795Z,-1.49
2019-01-26T14:48:42.679Z,-1.45
2019-01-26T14:50:16.628Z,-1.37
2019-01-26T14:51:50.507Z,-1.35
2019-01-26T14:53:24.411Z,-1.45
2019-01-26T14:54:58.412Z,-1.37
2019-01-26T14:56:32.292Z,-1.31
2019-01-26T14:58:06.250Z,-1.28
2019-01-26T14:59:41.144Z,-1.28
2019-01-26T15:01:15.152Z,-1.26
2019-01-26T15:02:47.847Z,-1.20
2019-01-26T15:04:21.827Z,-1.23
2019-01-26T15:05:55.780Z,-1.28
2019-01-26T15:07:30.064Z,-1.24
2019-01-26T15:09:04.124Z,-1.23
2019-01-26T15:10:38.133Z,-1.23
2019-01-26T15:12:11.962Z,-1.18
2019-01-26T15:13:45.747Z,-1.22
2019-01-26T15:15:22.005Z,-1.26
2019-01-26T15:16:56.530Z,-1.42
2019-01-26T15:18:30.688Z,-1.37
2019-01-26T15:20:06.262Z,-1.34
2019-01-26T15:21:39.807Z,-1.37
2019-01-26T15:23:13.894Z,-1.58
2019-01-26T15:24:48.785Z,-1.86
2019-01-26T15:26:22.909Z,-1.76
2019-01-26T15:27:56.818Z,-1.89
2019-01-26T15:29:30.708Z,-1.86
2019-01-26T15:31:06.036Z,-1.82
2019-01-26T15:32:39.852Z,-1.82
2019-01-26T15:34:13.720Z,-1.76
2019-01-26T15:35:47.859Z,-1.69
2019-01-26T15:37:21.767Z,-1.73
2019-01-26T15:38:55.957Z,-1.70
2019-01-26T15:40:30.888Z,-1.64
2019-01-26T15:42:05.206Z,-1.57
2019-01-26T15:43:39.094Z,-1.59
2019-01-26T15:45:13.498Z,-1.63
2019-01-26T15:46:47.425Z,-1.66
2019-01-26T15:48:22.651Z,-1.67
2019-01-26T15:49:56.332Z,-1.69
2019-01-26T15:51:30.135Z,-1.82
2019-01-26T15:53:03.959Z,-1.76
2019-01-26T15:54:36.831Z,-1.76
2019-01-26T15:56:10.640Z,-1.85
2019-01-26T15:57:44.518Z,-1.18
2019-01-26T15:59:18.646Z,-0.53
2019-01-26T16:00:56.628Z,0.15
2019-01-26T16:02:29.424Z,0.81
2019-01-26T16:04:03.832Z,1.34
2019-01-26T16:05:37.569Z,1.74
2019-01-26T16:07:11.621Z,2.00
2019-01-26T16:08:45.325Z,2.15
2019-01-26T16:10:19.138Z,2.11
2019-01-26T16:11:53.416Z,2.01
2019-01-26T16:13:27.352Z,1.88
2019-01-26T16:15:01.337Z,1.74
2019-01-26T16:16:36.285Z,1.60
2019-01-26T16:18:10.177Z,1.45
2019-01-26T16:19:44.497Z,1.29
2019-01-26T16:21:18.303Z,1.20
2019-01-26T16:22:51.993Z,0.99
2019-01-26T16:24:25.943Z,1.30
2019-01-26T16:26:00.038Z,1.69
2019-01-26T16:27:33.794Z,1.98
2019-01-26T16:29:07.911Z,2.21
2019-01-26T16:30:44.894Z,2.30
2019-01-26T16:32:18.035Z,2.30
2019-01-26T16:33:53.108Z,2.20
2019-01-26T16:35:28.844Z,2.15
2019-01-26T16:37:02.470Z,2.12
2019-01-26T16:38:36.655Z,2.03
2019-01-26T16:40:10.463Z,1.93
2019-01-26T16:41:45.075Z,1.84
2019-01-26T16:43:19.058Z,1.75
2019-01-26T16:44:53.073Z,1.66
2019-01-26T16:46:27.108Z,1.57
2019-01-26T16:48:01.375Z,1.46
2019-01-26T16:49:35.329Z,1.38
2019-01-26T16:51:09.552Z,1.30
2019-01-26T16:52:43.466Z,1.22
2019-01-26T16:54:17.535Z,1.10
2019-01-26T16:55:51.931Z,1.07
2019-01-26T16:57:26.575Z,1.02
2019-01-26T16:59:00.466Z,0.96
2019-01-26T17:00:40.599Z,0.88
2019-01-26T17:02:14.772Z,0.84
2019-01-26T17:03:49.190Z,0.77
2019-01-26T17:05:25.906Z,0.73
2019-01-26T17:06:58.653Z,0.65
2019-01-26T17:08:33.773Z,0.62
2019-01-26T17:10:07.650Z,0.58
2019-01-26T17:11:41.800Z,0.54
2019-01-26T17:13:15.995Z,0.51
2019-01-26T17:14:50.365Z,0.47
2019-01-26T17:16:25.318Z,0.44
2019-01-26T17:17:59.208Z,0.40
2019-01-26T17:19:33.026Z,0.36
2019-01-26T17:21:07.014Z,0.33
2019-01-26T17:22:41.377Z,0.30
2019-01-26T17:24:15.920Z,0.27
2019-01-26T17:25:50.000Z,0.24
2019-01-26T17:27:24.017Z,0.22
2019-01-26T17:28:58.622Z,0.20
2019-01-26T17:30:35.773Z,0.19
2019-01-26T17:32:09.811Z,0.08
2019-01-26T17:33:44.505Z,0.12
2019-01-26T17:35:18.639Z,0.07
2019-01-26T17:36:52.614Z,0.09
2019-01-26T17:38:26.292Z,0.07
2019-01-26T17:40:01.442Z,0.00
2019-01-26T17:41:34.242Z,0.01
2019-01-26T17:43:08.059Z,-0.02
2019-01-26T17:44:41.864Z,-0.01
2019-01-26T17:46:16.277Z,-0.02
2019-01-26T17:47:50.479Z,-0.03
2019-01-26T17:49:24.563Z,-0.04
2019-01-26T17:50:58.628Z,-0.04
2019-01-26T17:52:31.768Z,-0.04
2019-01-26T17:54:05.672Z,-0.05
2019-01-26T17:55:39.784Z,-0.05
2019-01-26T17:57:14.958Z,-0.07
2019-01-26T17:58:48.672Z,-0.08
2019-01-26T18:00:24.836Z,-0.10
2019-01-26T18:01:58.779Z,-0.10
2019-01-26T18:03:33.542Z,-0.11
2019-01-26T18:05:07.777Z,-0.12
2019-01-26T18:06:41.927Z,-0.13
2019-01-26T18:08:15.946Z,-0.13
2019-01-26T18:09:50.012Z,-0.15
2019-01-26T18:11:24.000Z,-0.15
2019-01-26T18:12:57.822Z,-0.15
2019-01-26T18:14:32.042Z,-0.17
2019-01-26T18:16:05.847Z,-0.16
2019-01-26T18:17:39.507Z,-0.17
2019-01-26T18:19:13.506Z,-0.19
2019-01-26T18:20:49.423Z,-0.18
2019-01-26T18:22:23.339Z,-0.19
2019-01-26T18:23:57.497Z,-0.20
2019-01-26T18:25:34.576Z,-0.19
2019-01-26T18:27:10.301Z,-0.20
2019-01-26T18:28:44.209Z,-0.20
2019-01-26T18:30:19.043Z,-0.21
2019-01-26T18:31:53.163Z,-0.21
2019-01-26T18:33:29.126Z,-0.21
2019-01-26T18:35:05.985Z,-0.21
2019-01-26T18:36:42.727Z,-0.23
2019-01-26T18:38:19.591Z,-0.17
2019-01-26T18:39:56.641Z,-0.14
2019-01-26T18:41:31.517Z,-0.12
2019-01-26T18:43:06.449Z,-0.12
2019-01-26T18:44:41.142Z,-0.12
2019-01-26T18:46:15.073Z,-0.11
2019-01-26T18:47:49.143Z,-0.12
2019-01-26T18:49:23.175Z,-0.13
2019-01-26T18:50:59.509Z,-0.14
2019-01-26T18:52:35.535Z,-0.15
2019-01-26T18:54:09.447Z,-0.15
2019-01-26T18:55:42.356Z,-0.17
2019-01-26T18:57:16.417Z,-0.18
2019-01-26T18:58:51.648Z,-0.18
2019-01-26T19:00:27.923Z,-0.19
2019-01-26T19:02:03.906Z,-0.21
2019-01-26T19:04:56.506Z,-0.22
2019-01-26T19:06:30.461Z,-0.22
2019-01-26T19:08:04.273Z,-0.23
2019-01-26T19:09:38.104Z,-0.23
2019-01-26T19:11:12.154Z,-0.26
2019-01-26T19:12:45.731Z,-0.27
2019-01-26T19:14:20.876Z,-0.27
2019-01-26T19:15:54.891Z,-0.28
2019-01-26T19:17:29.910Z,-0.29
2019-01-26T19:19:04.057Z,-0.30
2019-01-26T19:20:39.148Z,-0.31
2019-01-26T19:22:13.134Z,-0.32
2019-01-26T19:23:47.208Z,-0.32
2019-01-26T19:25:22.311Z,-0.33
2019-01-26T19:26:56.628Z,-0.33
2019-01-26T19:28:30.632Z,-0.33
2019-01-26T19:30:04.336Z,-0.33
2019-01-26T19:31:39.178Z,-0.34
2019-01-26T19:33:13.129Z,-0.35
2019-01-26T19:34:47.371Z,-0.34
2019-01-26T19:36:21.272Z,-0.35
2019-01-26T19:37:56.031Z,-0.37
2019-01-26T19:39:31.854Z,-0.36
2019-01-26T19:41:05.639Z,-0.37
2019-01-26T19:42:39.243Z,-0.38
2019-01-26T19:44:13.347Z,-0.38
2019-01-26T19:45:47.452Z,-0.39
2019-01-26T19:47:22.142Z,-0.39
2019-01-26T19:48:56.051Z,-0.40
2019-01-26T19:50:32.041Z,-0.40
2019-01-26T19:52:05.957Z,-0.41
2019-01-26T19:53:39.827Z,-0.42
2019-01-26T19:55:13.916Z,-0.41
2019-01-26T19:56:48.047Z,-0.42
2019-01-26T19:58:22.942Z,-0.42
2019-01-26T19:59:57.666Z,-0.43
2019-01-26T20:01:31.792Z,-0.43
2019-01-26T20:03:05.700Z,-0.46
2019-01-26T20:04:40.526Z,-0.47
2019-01-26T20:06:14.391Z,-0.48
2019-01-26T20:07:48.433Z,-0.47
2019-01-26T20:09:24.698Z,-0.48
2019-01-26T20:10:58.646Z,-0.49
2019-01-26T20:12:33.657Z,-0.49
2019-01-26T20:14:07.815Z,-0.49
2019-01-26T20:15:42.758Z,-0.50
2019-01-26T20:17:16.466Z,-0.53
2019-01-26T20:18:50.172Z,-0.54
2019-01-26T20:20:26.408Z,-0.55
2019-01-26T20:22:01.210Z,-0.53
2019-01-26T20:23:35.246Z,-0.55